Virtual Airlines Manager

 METAR AND TAF INFORMATION
METAR FOR GOOY
ADDS - METARS form results

(1820 UTC 27 March 2017)
Data provider http://aviationweather.gov/adds/metars/
 
METAR text: GOOY 271800Z 36017KT CAVOK 22/18 Q1010 NOSIG
Conditions at: GOOY (DAKAR/YOFF , SN) observed 1800 UTC 27 March 2017
Temperature: 22.0°C (72°F)
Dewpoint: 18.0°C (64°F) [RH = 78%]
Pressure (altimeter): 29.82 inches Hg (1010.0 mb)
Winds: from the N (360 degrees) at 20 MPH (17 knots; 8.8 m/s)
Visibility: 6 or more miles (10+ km)
Ceiling: ceiling and visibility are OK
Clouds: unknown
Weather: no significant weather observed at this time

METAR text: GOOY 271730Z 36018KT CAVOK 23/17 Q1010 NOSIG
Conditions at: GOOY (DAKAR/YOFF , SN) observed 1730 UTC 27 March 2017
Temperature: 23.0°C (73°F)
Dewpoint: 17.0°C (63°F) [RH = 69%]
Pressure (altimeter): 29.82 inches Hg (1010.0 mb)
Winds: from the N (360 degrees) at 21 MPH (18 knots; 9.4 m/s)
Visibility: 6 or more miles (10+ km)
Ceiling: ceiling and visibility are OK
Clouds: unknown
Weather: no significant weather observed at this time

Forecast for: GOOY (DAKAR/YOFF , SN)
Text: TAF GOOY 271730Z 2718/2824 36016KT 8000 NSC
Forecast period: 1800 to 2200 UTC 27 March 2017
Forecast type: FROM: standard forecast or significant change
Winds: from the N (360 degrees) at 18 MPH (16 knots; 8.3 m/s)
Visibility: 5 miles (8 km)
Clouds: not forecast
Weather: no significant weather forecast for this period
Text: BECMG 2722/2724 4500 DU
Forecast period: 2200 UTC 27 March 2017 to 0000 UTC 29 March 2017
Forecast type: BECOMING: Conditions expected to become as follows by 0000 UTC 28 March 2017
Winds: from the N (360 degrees) at 18 MPH (16 knots; 8.3 m/s)
Visibility: 2.80 miles (4.51 km)
Weather: DU  (widespread dust)

 AIRPORT MAP

 RUNWAY INFORMATION
Runway 03 Runway length 4921 ft Runway width 98 ft
Runway elevation 63 ft Runway displaced threshold 0 ft Runway heading 23
Runway 21 Runway length 4921 ft Runway width 98 ft
Runway elevation 56 ft Runway displaced threshold 0 ft Runway heading 203
Runway 18 Runway length 11450 ft Runway width 148 ft
Runway elevation 64 ft Runway displaced threshold 525 ft Runway heading 173
Runway 36 Runway length 11450 ft Runway width 148 ft
Runway elevation 75 ft Runway displaced threshold 0 ft Runway heading 353

 AIRPORT FREQUENCIES
Type APP Name DAKAR CON Frequency 120.5 MHZ
Type INFO Name DAKAR INFO Frequency 129.5 MHZ
Type INFO Name DAKAR INFO Frequency 345.2 MHZ
Type TWR Name DAKAR TWR Frequency 118.1 MHZ

 AIRPORT NEAR NAVIGATION AIDS
Type NDB Name Dakar Frequency 323 KHZ
Type VOR-DME Name Dakar Frequency 113100 KHZ



Powered by Virtual Airlines Manager [v2.6.2]